Terminal Aerodrome Forecast
Issued by NWS Blacksburg, VA

Current Version | Previous Version | Graphics & Text | Print | Product List | Glossary On
Versions: 1 2 3 4 5 6 7 8 9 10 11 12 13 14 15 16 17 18 19 20 21
000
FTUS41 KRNK 301138
TAFBLF
TAF
KBLF 301138Z 3012/0112 20008KT P6SM -SHRA OVC008
      TEMPO 3012/3013 4SM SHRA BR SCT008 OVC070
     FM301400 16007KT 4SM SHRA BR SCT004 OVC025
     FM301700 22010G24KT P6SM -SHRA OVC030
     FM302000 24008KT 5SM SHRA BR OVC020
     FM010000 27009KT P6SM OVC015
     FM010600 29010G22KT P6SM OVC020=

USA.gov is the U.S. government's official web portal to all federal, state and local government web resources and services.